Catalina Duchess — WDD2049 — position and weather

sailwx.info

Track history (hours):
 
Tides and Currents Weather Stations Pressure Air Temp Water Temp Dewpoint Dewpoint Depression Visibility Wind Speed Wind Dir Waves Ship Positions

Catalina Duchess

Owner: CATALINA CLASSIC CRUISES, INC., SAN DIEGO, CA. More information available from US FCC via Universal Licensing System and Coast Guard Vessel Documentation Center.

Last reported at 2018-Jun-18 21:42 UTC. Time now 2018-Jun-19 12:25 UTC.
Position N 33°45' W 118°12'.

Length 31 m; draft 2.5 m.

Type: Ship. MMSI: 367110260.

Date/timePositionNaut miles runAvg speedWind from/ knotsBaromVisibWave heightAir tempDewpointWater temp
2018-Jun-18 21:42N 33°45' W 118°12'0 0.3
2018-Jun-18 21:30N 33°45' W 118°12'0 0.0
2018-Jun-18 21:00N 33°45' W 118°12'3 6.1
2018-Jun-18 20:30N 33°42' W 118°11'612.8
2018-Jun-18 20:00N 33°36' W 118°14'713.3
2018-Jun-18 19:30N 33°30' W 118°18'6 4.6
2018-Jun-18 18:14N 33°25' W 118°21'412.7
2018-Jun-18 17:55N 33°29' W 118°19'512.6
2018-Jun-18 17:30N 33°34' W 118°17'612.6
2018-Jun-18 17:00N 33°39' W 118°13'611.9
2018-Jun-18 16:31N 33°45' W 118°11'1 1.3
2018-Jun-18 16:00N 33°45' W 118°12'0 0.0
2018-Jun-18 15:30N 33°45' W 118°12'0 0.0
2018-Jun-18 02:06N 33°45' W 118°12'0 1.0
2018-Jun-18 02:00N 33°45' W 118°11'510.6
2018-Jun-18 01:30N 33°40' W 118°13'712.7
2018-Jun-18 00:58N 33°35' W 118°19'6 3.1
2018-Jun-17 23:01N 33°32' W 118°25'212.7
2018-Jun-17 22:51N 33°33' W 118°23'412.5
2018-Jun-17 22:30N 33°37' W 118°19'612.1
2018-Jun-17 22:00N 33°40' W 118°14'510.5
2018-Jun-17 21:30N 33°45' W 118°11'0 0.6
2018-Jun-17 21:00N 33°45' W 118°12'0 0.0
2018-Jun-17 20:30N 33°45' W 118°12'0 0.0
2018-Jun-17 20:00N 33°45' W 118°12'0 0.0
2018-Jun-17 19:30N 33°45' W 118°12'0 0.0
2018-Jun-17 00:41N 33°45' W 118°12'1 3.0
2018-Jun-17 00:30N 33°45' W 118°11'612.6
2018-Jun-17 00:00N 33°39' W 118°13'713.1
2018-Jun-16 23:30N 33°33' W 118°16'712.9
2018-Jun-16 22:58N 33°27' W 118°20'3 4.5
2018-Jun-16 22:20N 33°24' W 118°22'411.4
2018-Jun-16 22:00N 33°28' W 118°20'612.1
2018-Jun-16 21:30N 33°33' W 118°16'611.7
2018-Jun-16 21:00N 33°38' W 118°13'611.6
2018-Jun-16 20:30N 33°44' W 118°11'2 3.1
2018-Jun-16 20:01N 33°45' W 118°12'3 5.2
2018-Jun-16 19:30N 33°43' W 118°11'612.7
2018-Jun-16 19:00N 33°38' W 118°16'713.2
2018-Jun-16 18:30N 33°33' W 118°22'713.2
2018-Jun-16 17:58N 33°29' W 118°28'2 2.0
2018-Jun-16 17:01N 33°30' W 118°26'113.6
2018-Jun-16 16:55N 33°31' W 118°25'613.6
2018-Jun-16 16:30N 33°35' W 118°20'712.9
2018-Jun-16 16:00N 33°39' W 118°15'612.0
2018-Jun-16 15:30N 33°45' W 118°11'1 0.1
2018-Jun-16 04:39N 33°45' W 118°12'0 0.0
2018-Jun-16 04:30N 33°45' W 118°12'0 0.0
2018-Jun-16 04:00N 33°45' W 118°12'2 3.6
2018-Jun-16 03:30N 33°45' W 118°09'1 2.7
2018-Jun-16 03:00N 33°44' W 118°09'2 4.3
2018-Jun-16 02:30N 33°45' W 118°12'0 0.0
2018-Jun-16 02:00N 33°45' W 118°12'0 0.0
2018-Jun-16 01:30N 33°45' W 118°12'0 0.0
2018-Jun-16 01:00N 33°45' W 118°12'0 0.0
2018-Jun-16 00:30N 33°45' W 118°12'0 0.0
2018-Jun-16 00:00N 33°45' W 118°12'  
2018-Jun-11 02:17N 33°45' W 118°12'0 0.1
2018-Jun-11 02:00N 33°45' W 118°12'510.3
2018-Jun-11 01:30N 33°40' W 118°12'712.9
2018-Jun-11 00:59N 33°36' W 118°18'612.2
2018-Jun-11 00:30N 33°32' W 118°24'612.7
2018-Jun-11 00:00N 33°28' W 118°29'0 0.7
2018-Jun-10 23:30N 33°27' W 118°30'713.2
2018-Jun-10 22:57N 33°32' W 118°23'613.0
2018-Jun-10 22:30N 33°35' W 118°17'510.9
2018-Jun-10 22:00N 33°40' W 118°13'611.3
2018-Jun-10 21:30N 33°45' W 118°11'1 1.1
2018-Jun-10 21:00N 33°45' W 118°12'0 0.0
2018-Jun-09 21:00N 33°45' W 118°12'1 1.8
2018-Jun-09 20:30N 33°45' W 118°10'0 0.1
2018-Jun-09 20:00N 33°45' W 118°10'1 1.9
2018-Jun-09 19:30N 33°45' W 118°12'  
Track history (hours):
 
Tides and Currents Weather Stations Pressure Air Temp Water Temp Dewpoint Dewpoint Depression Visibility Wind Speed Wind Dir Waves Ship Positions

Catalina Duchess

Owner: CATALINA CLASSIC CRUISES, INC., SAN DIEGO, CA. More information available from US FCC via Universal Licensing System and Coast Guard Vessel Documentation Center.

Last reported at 2018-Jun-18 21:42 UTC. Time now 2018-Jun-19 12:25 UTC.
Position N 33°45' W 118°12'.

Length 31 m; draft 2.5 m.

Type: Ship. MMSI: 367110260.

Date/timePositionNaut miles runAvg speedWind from/ knotsBaromVisibWave heightAir tempDewpointWater temp
2018-Jun-18 21:42N 33°45' W 118°12'0 0.3
2018-Jun-18 21:30N 33°45' W 118°12'0 0.0
2018-Jun-18 21:00N 33°45' W 118°12'3 6.1
2018-Jun-18 20:30N 33°42' W 118°11'612.8
2018-Jun-18 20:00N 33°36' W 118°14'713.3
2018-Jun-18 19:30N 33°30' W 118°18'6 4.6
2018-Jun-18 18:14N 33°25' W 118°21'412.7
2018-Jun-18 17:55N 33°29' W 118°19'512.6
2018-Jun-18 17:30N 33°34' W 118°17'612.6
2018-Jun-18 17:00N 33°39' W 118°13'611.9
2018-Jun-18 16:31N 33°45' W 118°11'1 1.3
2018-Jun-18 16:00N 33°45' W 118°12'0 0.0
2018-Jun-18 15:30N 33°45' W 118°12'0 0.0
2018-Jun-18 02:06N 33°45' W 118°12'0 1.0
2018-Jun-18 02:00N 33°45' W 118°11'510.6
2018-Jun-18 01:30N 33°40' W 118°13'712.7
2018-Jun-18 00:58N 33°35' W 118°19'6 3.1
2018-Jun-17 23:01N 33°32' W 118°25'212.7
2018-Jun-17 22:51N 33°33' W 118°23'412.5
2018-Jun-17 22:30N 33°37' W 118°19'612.1
2018-Jun-17 22:00N 33°40' W 118°14'510.5
2018-Jun-17 21:30N 33°45' W 118°11'0 0.6
2018-Jun-17 21:00N 33°45' W 118°12'0 0.0
2018-Jun-17 20:30N 33°45' W 118°12'0 0.0
2018-Jun-17 20:00N 33°45' W 118°12'0 0.0
2018-Jun-17 19:30N 33°45' W 118°12'0 0.0
2018-Jun-17 00:41N 33°45' W 118°12'1 3.0
2018-Jun-17 00:30N 33°45' W 118°11'612.6
2018-Jun-17 00:00N 33°39' W 118°13'713.1
2018-Jun-16 23:30N 33°33' W 118°16'712.9
2018-Jun-16 22:58N 33°27' W 118°20'3 4.5
2018-Jun-16 22:20N 33°24' W 118°22'411.4
2018-Jun-16 22:00N 33°28' W 118°20'612.1
2018-Jun-16 21:30N 33°33' W 118°16'611.7
2018-Jun-16 21:00N 33°38' W 118°13'611.6
2018-Jun-16 20:30N 33°44' W 118°11'2 3.1
2018-Jun-16 20:01N 33°45' W 118°12'3 5.2
2018-Jun-16 19:30N 33°43' W 118°11'612.7
2018-Jun-16 19:00N 33°38' W 118°16'713.2
2018-Jun-16 18:30N 33°33' W 118°22'713.2
2018-Jun-16 17:58N 33°29' W 118°28'2 2.0
2018-Jun-16 17:01N 33°30' W 118°26'113.6
2018-Jun-16 16:55N 33°31' W 118°25'613.6
2018-Jun-16 16:30N 33°35' W 118°20'712.9
2018-Jun-16 16:00N 33°39' W 118°15'612.0
2018-Jun-16 15:30N 33°45' W 118°11'1 0.1
2018-Jun-16 04:39N 33°45' W 118°12'0 0.0
2018-Jun-16 04:30N 33°45' W 118°12'0 0.0
2018-Jun-16 04:00N 33°45' W 118°12'2 3.6
2018-Jun-16 03:30N 33°45' W 118°09'1 2.7
2018-Jun-16 03:00N 33°44' W 118°09'2 4.3
2018-Jun-16 02:30N 33°45' W 118°12'0 0.0
2018-Jun-16 02:00N 33°45' W 118°12'0 0.0
2018-Jun-16 01:30N 33°45' W 118°12'0 0.0
2018-Jun-16 01:00N 33°45' W 118°12'0 0.0
2018-Jun-16 00:30N 33°45' W 118°12'0 0.0
2018-Jun-16 00:00N 33°45' W 118°12'  
2018-Jun-11 02:17N 33°45' W 118°12'0 0.1
2018-Jun-11 02:00N 33°45' W 118°12'510.3
2018-Jun-11 01:30N 33°40' W 118°12'712.9
2018-Jun-11 00:59N 33°36' W 118°18'612.2
2018-Jun-11 00:30N 33°32' W 118°24'612.7
2018-Jun-11 00:00N 33°28' W 118°29'0 0.7
2018-Jun-10 23:30N 33°27' W 118°30'713.2
2018-Jun-10 22:57N 33°32' W 118°23'613.0
2018-Jun-10 22:30N 33°35' W 118°17'510.9
2018-Jun-10 22:00N 33°40' W 118°13'611.3
2018-Jun-10 21:30N 33°45' W 118°11'1 1.1
2018-Jun-10 21:00N 33°45' W 118°12'0 0.0
2018-Jun-09 21:00N 33°45' W 118°12'1 1.8
2018-Jun-09 20:30N 33°45' W 118°10'0 0.1
2018-Jun-09 20:00N 33°45' W 118°10'1 1.9
2018-Jun-09 19:30N 33°45' W 118°12'  

Dump ship's entire track history